Time;durP1;ratioP1;P1;durP2;ratioP2;P2;SDS_P1;SDS_P2;PMS_P1;PMS_P2;Temp;Humidity;BMP_temperature;BMP_pressure;BME280_temperature;BME280_humidity;BME280_pressure;Samples;Min_cycle;Max_cycle;Signal;HPM_P1;HPM_P2
2022/06/09 00:02:13;;;;;;;2.53;0.90;;;;;;;13.30;100.00;95828.22;5032218;28;101855;-61
2022/06/09 00:04:53;;;;;;;0.70;0.70;;;;;;;13.34;100.00;95829.25;5030510;28;104940;-61
2022/06/09 00:07:22;;;;;;;1.07;1.03;;;;;;;13.29;100.00;95831.94;5031580;28;102700;-61
2022/06/09 00:09:55;;;;;;;0.83;0.80;;;;;;;13.17;100.00;95834.19;5030558;28;101880;-61
2022/06/09 00:12:23;;;;;;;0.97;0.80;;;;;;;13.17;100.00;95834.19;5032417;28;102877;-61
2022/06/09 00:15:12;;;;;;;0.80;0.60;;;;;;;13.17;100.00;95839.53;5031333;28;102658;-61
2022/06/09 00:17:47;;;;;;;0.90;0.90;;;;;;;13.14;100.00;95840.13;5030684;28;101861;-61
2022/06/09 00:20:16;;;;;;;1.43;0.70;;;;;;;13.18;100.00;95833.94;5033321;28;105117;-61
2022/06/09 00:22:43;;;;;;;0.60;0.60;;;;;;;13.18;100.00;95825.91;5031860;27;101852;-61
2022/06/09 00:25:11;;;;;;;0.70;0.70;;;;;;;13.10;100.00;95833.72;5030380;28;105566;-61
2022/06/09 00:27:39;;;;;;;0.80;0.80;;;;;;;13.14;100.00;95835.56;5029831;28;105697;-61
2022/06/09 00:30:11;;;;;;;0.60;0.60;;;;;;;13.16;100.00;95837.94;5031898;28;101851;-61
2022/06/09 00:32:38;;;;;;;0.63;0.63;;;;;;;13.11;100.00;95829.97;5031958;28;102369;-61
2022/06/09 00:35:11;;;;;;;1.10;0.70;;;;;;;13.11;100.00;95840.66;5031184;28;102651;-61
2022/06/09 00:37:38;;;;;;;0.70;0.60;;;;;;;13.02;100.00;95832.44;5031744;27;101690;-61
2022/06/09 00:40:07;;;;;;;0.60;0.60;;;;;;;13.02;100.00;95824.44;5031683;27;102401;-61
2022/06/09 00:42:35;;;;;;;1.40;0.80;;;;;;;13.09;100.00;95824.13;5034378;28;102699;-61
2022/06/09 00:45:34;;;;;;;0.60;0.60;;;;;;;13.08;100.00;95830.56;5031576;28;102415;-61
2022/06/09 00:51:29;;;;;;;0.83;0.70;;;;;;;13.09;100.00;95819.56;5031680;27;101763;-61
2022/06/09 00:54:00;;;;;;;0.50;0.50;;;;;;;13.02;100.00;95823.66;5031570;28;102856;-61
2022/06/09 00:56:29;;;;;;;0.60;0.60;;;;;;;13.12;100.00;95812.88;5029379;28;105859;-61
2022/06/09 00:58:57;;;;;;;0.60;0.60;;;;;;;13.10;100.00;95813.19;5031237;28;101915;-61
2022/06/09 01:01:26;;;;;;;0.70;0.70;;;;;;;13.12;100.00;95812.88;5031346;28;102392;-61
2022/06/09 01:04:00;;;;;;;0.60;0.60;;;;;;;13.14;100.00;95810.75;5030376;28;102766;-61
2022/06/09 01:06:30;;;;;;;0.60;0.60;;;;;;;13.14;100.00;95818.75;5034885;28;102183;-61
2022/06/09 01:09:03;;;;;;;0.63;0.63;;;;;;;13.14;100.00;95824.88;5030835;27;102491;-61
2022/06/09 01:11:30;;;;;;;0.70;0.70;;;;;;;13.11;100.00;95813.97;5029875;28;102098;-61
2022/06/09 01:13:59;;;;;;;0.70;0.57;;;;;;;13.06;100.00;95816.66;5031198;28;102522;-61
2022/06/09 01:16:38;;;;;;;0.50;0.50;;;;;;;13.20;100.00;95815.75;5030472;28;103065;-61
2022/06/09 01:19:53;;;;;;;0.73;0.60;;;;;;;13.19;100.00;95810.72;5031184;28;101894;-61
2022/06/09 01:22:40;;;;;;;0.50;0.50;;;;;;;13.20;100.00;95815.75;5006014;27;104070;-61
2022/06/09 01:25:54;;;;;;;1.73;0.60;;;;;;;13.10;100.00;95810.50;5030417;28;102908;-61
2022/06/09 01:28:55;;;;;;;0.63;0.60;;;;;;;13.08;100.00;95809.19;5009866;27;101991;-61
2022/06/09 01:31:29;;;;;;;0.60;0.60;;;;;;;13.03;100.00;95823.34;5030448;27;103092;-61
2022/06/09 01:34:05;;;;;;;2.20;0.60;;;;;;;13.09;100.00;95821.47;5029577;28;101981;-61
2022/06/09 01:39:57;;;;;;;0.60;0.60;;;;;;;12.98;100.00;95811.94;5028631;28;105523;-61
2022/06/09 01:42:28;;;;;;;0.60;0.60;;;;;;;12.97;100.00;95811.13;5030585;28;101842;-61
2022/06/09 01:45:02;;;;;;;0.60;0.60;;;;;;;12.99;100.00;95801.00;5030357;28;105398;-61
2022/06/09 01:47:39;;;;;;;1.00;0.70;;;;;;;13.03;100.00;95802.00;5028742;28;104053;-61
2022/06/09 01:50:11;;;;;;;0.70;0.70;;;;;;;13.09;100.00;95805.44;5029006;28;101817;-61
2022/06/09 01:52:42;;;;;;;0.50;0.50;;;;;;;13.05;100.00;95804.41;5033567;28;102392;-61
2022/06/09 01:55:16;;;;;;;0.50;0.50;;;;;;;13.04;100.00;95814.28;5029226;28;101914;-61
2022/06/09 01:57:47;;;;;;;0.70;0.70;;;;;;;12.98;100.00;95801.28;5030732;28;102740;-61
2022/06/09 02:00:17;;;;;;;0.60;0.60;;;;;;;13.00;100.00;95804.44;5028071;28;106436;-61
2022/06/09 02:02:50;;;;;;;0.80;0.60;;;;;;;12.96;100.00;95806.06;5028904;28;102065;-61
2022/06/09 02:05:22;;;;;;;0.50;0.50;;;;;;;12.94;100.00;95802.88;5028982;28;105207;-61
2022/06/09 02:07:51;;;;;;;1.17;0.60;;;;;;;12.94;100.00;95801.00;5029852;27;102581;-61
2022/06/09 02:10:22;;;;;;;0.70;0.70;;;;;;;12.99;100.00;95808.19;5030195;28;101848;-61
2022/06/09 02:12:51;;;;;;;0.43;0.43;;;;;;;12.99;100.00;95805.53;5030503;28;102933;-61
2022/06/09 02:15:38;;;;;;;1.27;0.63;;;;;;;13.08;100.00;95807.31;5033102;28;102574;-61
2022/06/09 02:18:53;;;;;;;1.07;0.97;;;;;;;13.06;100.00;95814.00;5030480;27;102288;-61
2022/06/09 02:21:26;;;;;;;0.60;0.60;;;;;;;13.09;100.00;95806.22;5029843;28;103101;-61
2022/06/09 02:23:54;;;;;;;0.60;0.60;;;;;;;13.03;100.00;95818.03;5030349;28;101772;-61
2022/06/09 02:26:24;;;;;;;1.97;0.60;;;;;;;12.87;100.00;95805.06;5030057;28;102407;-61
2022/06/09 02:28:52;;;;;;;0.60;0.60;;;;;;;12.90;100.00;95812.50;5029361;27;104665;-61
2022/06/09 02:31:20;;;;;;;0.80;0.80;;;;;;;12.94;100.00;95809.00;5028758;28;102027;-61
2022/06/09 02:33:48;;;;;;;0.80;0.80;;;;;;;12.99;100.00;95816.19;5030157;27;102286;-61
2022/06/09 02:36:16;;;;;;;0.60;0.60;;;;;;;13.03;100.00;95817.25;5028045;28;105983;-61
2022/06/09 02:38:45;;;;;;;1.00;1.00;;;;;;;13.05;100.00;95817.75;5032060;28;101959;-61
2022/06/09 02:41:13;;;;;;;0.97;0.97;;;;;;;13.03;100.00;95814.56;5029602;28;102648;-61
2022/06/09 02:43:41;;;;;;;0.80;0.80;;;;;;;13.03;100.00;95822.59;5032054;28;102348;-61
2022/06/09 02:46:09;;;;;;;0.90;0.90;;;;;;;13.07;100.00;95818.25;5033499;28;102630;-61
2022/06/09 02:48:36;;;;;;;1.17;0.80;;;;;;;13.05;100.00;95818.56;5032892;28;103163;-61
2022/06/09 02:51:16;;;;;;;0.67;0.67;;;;;;;13.03;100.00;95817.25;5033471;28;101694;-61
2022/06/09 02:53:45;;;;;;;0.80;0.80;;;;;;;13.04;100.00;95818.84;5033491;27;102318;-61
2022/06/09 02:56:17;;;;;;;0.80;0.80;;;;;;;13.07;100.00;95821.72;5031303;28;105846;-61
2022/06/09 02:58:44;;;;;;;1.10;0.70;;;;;;;13.09;100.00;95824.13;5032953;28;101944;-61
2022/06/09 03:01:11;;;;;;;0.70;0.70;;;;;;;13.11;100.00;95829.97;5036323;28;102894;-61
2022/06/09 03:03:38;;;;;;;1.23;0.80;;;;;;;13.14;100.00;95826.75;5033206;28;101761;-61
2022/06/09 03:06:10;;;;;;;0.93;0.80;;;;;;;13.12;100.00;95831.56;5033093;28;102903;-61
2022/06/09 03:08:38;;;;;;;0.67;0.67;;;;;;;13.16;100.00;95828.09;5030974;28;105800;-61
2022/06/09 03:11:10;;;;;;;1.13;0.70;;;;;;;13.20;100.00;95834.44;5031692;28;101981;-61
2022/06/09 03:13:38;;;;;;;0.80;0.80;;;;;;;13.16;100.00;95836.09;5033094;28;104321;-61
2022/06/09 03:16:11;;;;;;;1.23;0.87;;;;;;;13.16;100.00;95837.94;5031024;28;105933;-61
2022/06/09 03:18:38;;;;;;;2.10;1.10;;;;;;;13.15;100.00;95837.16;5033006;28;101765;-61
2022/06/09 03:21:06;;;;;;;1.60;1.17;;;;;;;13.17;100.00;95840.34;5033023;27;102799;-61
2022/06/09 03:23:33;;;;;;;1.03;1.03;;;;;;;13.24;100.00;95840.03;5035702;28;102887;-61
2022/06/09 03:26:24;;;;;;;0.80;0.80;;;;;;;13.17;100.00;95837.69;5032757;28;103394;-61
2022/06/09 03:28:52;;;;;;;0.77;0.70;;;;;;;13.15;100.00;95841.69;5032102;28;102609;-61
2022/06/09 03:31:19;;;;;;;0.70;0.70;;;;;;;13.12;100.00;95842.25;5032817;28;102132;-61
2022/06/09 03:33:49;;;;;;;0.87;0.87;;;;;;;13.17;100.00;95851.03;5032859;27;102590;-61
2022/06/09 03:36:17;;;;;;;0.83;0.83;;;;;;;13.16;100.00;95849.44;5031897;28;103139;-61
2022/06/09 03:38:44;;;;;;;1.00;0.90;;;;;;;13.19;100.00;95848.88;5031169;28;101963;-61
2022/06/09 03:41:11;;;;;;;1.27;1.00;;;;;;;13.20;100.00;95849.66;5032720;28;102510;-61
2022/06/09 03:43:40;;;;;;;0.80;0.80;;;;;;;13.25;100.00;95852.31;5035463;28;102685;-61
2022/06/09 03:46:12;;;;;;;1.10;1.10;;;;;;;13.24;100.00;95846.16;5032241;28;104425;-61
2022/06/09 03:49:15;;;;;;;0.97;0.97;;;;;;;13.23;100.00;95849.09;5032066;28;103215;-61
2022/06/09 03:51:42;;;;;;;1.20;1.20;;;;;;;13.33;100.00;95843.69;5030942;28;101790;-61
2022/06/09 03:54:09;;;;;;;1.40;1.00;;;;;;;13.34;100.00;95862.09;5032100;28;102453;-61
2022/06/09 03:57:05;;;;;;;1.10;1.07;;;;;;;13.38;100.00;95848.97;5031718;27;104244;-61
2022/06/09 03:59:33;;;;;;;1.37;1.00;;;;;;;13.37;100.00;95847.38;5030681;28;102159;-61
2022/06/09 04:02:00;;;;;;;1.00;1.00;;;;;;;13.34;100.00;95851.41;5032267;28;102382;-61
2022/06/09 04:04:52;;;;;;;1.10;1.10;;;;;;;13.34;100.00;95847.94;5029995;28;105885;-61
2022/06/09 04:07:19;;;;;;;1.10;1.10;;;;;;;13.36;100.00;95848.47;5034203;28;101944;-61
2022/06/09 04:09:46;;;;;;;1.40;1.30;;;;;;;13.37;100.00;95844.72;5030256;28;105852;-61
2022/06/09 04:12:13;;;;;;;1.83;0.93;;;;;;;13.38;100.00;95846.31;5030708;28;102005;-61
2022/06/09 04:14:59;;;;;;;1.10;1.10;;;;;;;13.46;100.00;95853.72;5032087;28;101689;-61
2022/06/09 04:17:26;;;;;;;1.90;1.20;;;;;;;13.37;100.00;95853.53;5031314;28;104624;-61
2022/06/09 04:19:54;;;;;;;0.90;0.90;;;;;;;13.41;100.00;95851.09;5030575;28;101928;-61
2022/06/09 04:22:21;;;;;;;1.10;1.10;;;;;;;13.47;100.00;95858.75;5031921;27;102886;-61
2022/06/09 04:24:53;;;;;;;1.10;1.10;;;;;;;13.46;100.00;95854.50;5031299;27;103047;-61
2022/06/09 04:27:21;;;;;;;1.27;1.23;;;;;;;13.47;100.00;95863.34;5032045;28;101782;-61
2022/06/09 04:29:48;;;;;;;1.10;1.10;;;;;;;13.49;100.00;95863.84;5033317;28;106039;-61
2022/06/09 04:32:17;;;;;;;1.60;1.50;;;;;;;13.51;100.00;95859.81;5031781;27;101786;-61
2022/06/09 04:34:44;;;;;;;2.40;1.30;;;;;;;13.51;100.00;95869.72;5031713;28;102315;-61
2022/06/09 04:37:11;;;;;;;1.60;1.50;;;;;;;13.52;100.00;95864.06;5029639;28;105892;-61
2022/06/09 04:39:38;;;;;;;2.30;1.20;;;;;;;13.57;100.00;95869.38;5031840;27;102281;-61
2022/06/09 04:42:06;;;;;;;1.60;1.50;;;;;;;13.59;100.00;95874.44;5031717;28;102840;-61
2022/06/09 04:44:41;;;;;;;1.90;1.70;;;;;;;13.66;100.00;95873.03;5030989;28;102777;-61
2022/06/09 04:47:08;;;;;;;1.77;1.50;;;;;;;13.68;100.00;95878.09;5031713;28;101728;-61
2022/06/09 04:49:37;;;;;;;1.53;1.30;;;;;;;13.75;100.00;95873.22;5030163;28;105206;-61
2022/06/09 04:52:05;;;;;;;2.90;1.70;;;;;;;13.82;100.00;95873.66;5034463;28;101965;-61
2022/06/09 04:54:32;;;;;;;2.70;1.60;;;;;;;13.81;100.00;95888.94;5030176;28;105120;-61
2022/06/09 04:56:58;;;;;;;4.90;1.67;;;;;;;13.85;100.00;95883.81;5030876;27;102570;-61
2022/06/09 04:59:26;;;;;;;2.47;1.70;;;;;;;13.91;100.00;95890.69;5030662;28;101832;-61
2022/06/09 05:01:53;;;;;;;1.40;1.30;;;;;;;13.85;100.00;95889.94;5029932;28;105295;-61
2022/06/09 05:04:20;;;;;;;3.07;1.60;;;;;;;13.85;100.00;95887.25;5028146;28;106235;-61
2022/06/09 05:06:49;;;;;;;2.77;1.50;;;;;;;13.86;100.00;95890.75;5029649;28;101845;-61
2022/06/09 05:09:17;;;;;;;1.67;1.17;;;;;;;13.84;100.00;95887.56;5029886;28;105375;-61
2022/06/09 05:11:44;;;;;;;1.23;1.10;;;;;;;13.89;100.00;95887.53;5030683;28;103291;-61
2022/06/09 05:14:12;;;;;;;1.30;1.20;;;;;;;13.94;100.00;95890.13;5034648;28;101939;-61
2022/06/09 05:16:39;;;;;;;1.20;1.10;;;;;;;14.07;100.00;95886.78;5030297;28;102673;-61
2022/06/09 05:19:21;;;;;;;1.30;1.20;;;;;;;14.05;100.00;95891.59;5029755;28;101950;-61
2022/06/09 05:21:50;;;;;;;1.40;1.10;;;;;;;14.02;100.00;95889.50;5029659;28;105135;-61
2022/06/09 05:24:17;;;;;;;2.57;1.70;;;;;;;14.03;100.00;95897.25;5030408;28;102663;-61
2022/06/09 05:26:44;;;;;;;1.23;1.13;;;;;;;14.05;100.00;95900.44;5029382;28;102103;-61
2022/06/09 05:29:11;;;;;;;1.50;1.40;;;;;;;14.04;100.00;95906.88;5030963;28;102608;-61
2022/06/09 05:31:39;;;;;;;1.77;1.20;;;;;;;14.01;100.00;95907.41;5030179;28;102720;-61
2022/06/09 05:34:06;;;;;;;1.10;1.10;;;;;;;14.05;100.00;95915.66;5030860;28;101874;-61
2022/06/09 05:36:35;;;;;;;1.70;1.30;;;;;;;14.10;100.00;95918.28;5033678;27;102314;-61
2022/06/09 05:44:54;;;;;;;1.80;1.43;;;;;;;14.12;100.00;95916.91;5028736;28;105962;-61
2022/06/09 05:47:22;;;;;;;2.20;1.63;;;;;;;14.21;100.00;95919.81;5030656;27;101818;-61
2022/06/09 05:49:51;;;;;;;1.40;1.30;;;;;;;14.11;100.00;95914.56;5030638;27;102807;-61
2022/06/09 05:52:22;;;;;;;1.70;1.20;;;;;;;14.08;100.00;95925.81;5028492;28;105601;-60
2022/06/09 05:54:52;;;;;;;1.30;1.30;;;;;;;14.24;100.00;95933.44;5030746;28;101688;-60
2022/06/09 05:57:20;;;;;;;1.40;1.30;;;;;;;14.21;100.00;95930.50;5033581;28;102835;-60
2022/06/09 05:59:48;;;;;;;1.40;1.30;;;;;;;14.24;100.00;95935.28;5030255;28;101894;-60
2022/06/09 06:02:16;;;;;;;2.03;1.57;;;;;;;14.26;100.00;95938.47;5029049;28;104418;-60
2022/06/09 06:04:47;;;;;;;1.40;1.30;;;;;;;14.29;100.00;95929.88;5028351;28;105831;-60
2022/06/09 06:07:14;;;;;;;1.30;1.30;;;;;;;14.40;100.00;95939.41;5030186;28;101816;-60
2022/06/09 06:09:42;;;;;;;1.30;1.30;;;;;;;14.35;100.00;95942.13;5029096;28;105143;-60
2022/06/09 06:12:11;;;;;;;1.20;1.10;;;;;;;14.39;100.00;95943.16;5028394;28;103995;-60
2022/06/09 06:14:44;;;;;;;1.40;1.30;;;;;;;14.47;100.00;95945.19;5030199;27;101838;-60
2022/06/09 06:17:11;;;;;;;2.23;1.50;;;;;;;14.46;100.00;95948.97;5032343;27;103764;-60
2022/06/09 06:19:45;;;;;;;1.50;1.40;;;;;;;14.50;100.00;95950.00;5036719;27;102572;-60
2022/06/09 06:22:12;;;;;;;2.27;1.20;;;;;;;14.41;100.00;95954.38;5032489;28;105631;-60
2022/06/09 06:24:49;;;;;;;1.50;1.40;;;;;;;14.43;100.00;95949.50;5033260;28;102807;-60
2022/06/09 06:27:18;;;;;;;1.37;1.10;;;;;;;14.43;100.00;95952.19;5033864;28;101749;-60
2022/06/09 06:29:46;;;;;;;2.00;1.20;;;;;;;14.52;100.00;95956.66;5033591;28;102360;-60
2022/06/09 06:32:13;;;;;;;1.30;1.20;;;;;;;14.54;100.00;95959.81;5033189;27;102563;-60
2022/06/09 06:34:42;;;;;;;1.20;1.20;;;;;;;14.51;100.00;95962.28;5032222;28;101916;-60
2022/06/09 06:37:10;;;;;;;2.53;1.47;;;;;;;14.58;100.00;95965.41;5032331;28;103676;-60
2022/06/09 06:39:37;;;;;;;3.33;1.20;;;;;;;14.74;100.00;95967.63;5032901;28;102823;-60
2022/06/09 06:42:05;;;;;;;1.40;1.30;;;;;;;14.66;100.00;95960.22;5035573;28;101928;-60
2022/06/09 06:44:40;;;;;;;1.40;1.20;;;;;;;14.69;100.00;95967.69;5031615;28;104087;-60
2022/06/09 06:47:07;;;;;;;1.20;1.10;;;;;;;14.79;100.00;95958.72;5033486;28;101682;-60
2022/06/09 06:49:36;;;;;;;1.33;1.20;;;;;;;14.80;100.00;95965.66;5033263;28;104110;-61
2022/06/09 06:52:04;;;;;;;1.97;1.40;;;;;;;14.93;100.00;95965.00;5032834;28;102671;-61
2022/06/09 06:54:31;;;;;;;1.10;1.10;;;;;;;14.87;100.00;95966.13;5031969;28;101904;-61
2022/06/09 06:56:59;;;;;;;1.30;1.20;;;;;;;14.99;100.00;95969.19;5031962;28;105172;-61
2022/06/09 06:59:26;;;;;;;1.93;1.23;;;;;;;15.07;100.00;95974.69;5031969;27;102545;-60
2022/06/09 07:01:54;;;;;;;2.03;1.33;;;;;;;15.18;100.00;95975.34;5031867;28;101935;-60
2022/06/09 07:04:22;;;;;;;1.60;1.50;;;;;;;15.17;100.00;95971.09;5034484;28;105254;-60
2022/06/09 07:06:48;;;;;;;1.50;1.40;;;;;;;14.97;100.00;95968.66;5033079;28;101894;-61
2022/06/09 07:09:16;;;;;;;1.50;1.40;;;;;;;14.94;100.00;95970.03;5033116;28;102382;-60
2022/06/09 07:11:45;;;;;;;2.87;1.80;;;;;;;15.23;100.00;95970.72;5032508;28;102591;-60
2022/06/09 07:14:12;;;;;;;2.33;1.70;;;;;;;15.40;100.00;95973.72;5033035;27;101894;-60
2022/06/09 07:16:40;;;;;;;2.17;1.70;;;;;;;15.55;100.00;95981.56;5033077;28;102416;-60
2022/06/09 07:19:08;;;;;;;2.27;1.40;;;;;;;15.46;100.00;95972.56;5032409;28;103157;-60
2022/06/09 07:21:36;;;;;;;1.40;1.30;;;;;;;15.43;100.00;95969.69;5031477;28;102012;-60
2022/06/09 07:24:03;;;;;;;1.30;1.20;;;;;;;15.40;100.00;95975.59;5031387;28;105302;-61
2022/06/09 07:26:31;;;;;;;1.87;1.77;;;;;;;15.50;100.00;95986.19;5035712;27;103235;-60
2022/06/09 07:28:58;;;;;;;1.40;1.40;;;;;;;15.50;100.00;95980.81;5032313;28;102865;-61
2022/06/09 07:31:25;;;;;;;2.40;1.30;;;;;;;15.59;100.00;95979.84;5030731;28;106374;-60
2022/06/09 07:33:53;;;;;;;1.47;1.37;;;;;;;15.48;100.00;95985.69;5031270;28;101906;-60
2022/06/09 07:36:25;;;;;;;1.70;1.60;;;;;;;15.41;100.00;95987.91;5032694;28;102741;-60
2022/06/09 07:38:53;;;;;;;1.67;1.57;;;;;;;15.33;100.00;95991.25;5032238;28;103177;-61
2022/06/09 07:41:20;;;;;;;2.00;1.50;;;;;;;15.09;100.00;95993.16;5032823;28;101860;-61
2022/06/09 07:43:48;;;;;;;1.80;1.60;;;;;;;15.09;100.00;95999.31;5031263;28;105024;-61
2022/06/09 07:46:17;;;;;;;2.03;1.50;;;;;;;14.97;100.00;95996.25;5031861;28;103179;-61
2022/06/09 07:48:46;;;;;;;2.20;1.57;;;;;;;14.78;100.00;95999.97;5036079;27;101834;-60
2022/06/09 07:51:14;;;;;;;1.30;1.30;;;;;;;14.68;100.00;96000.88;5031878;28;102561;-61
2022/06/09 07:53:42;;;;;;;1.30;1.20;;;;;;;14.61;100.00;96013.78;5032611;27;101875;-60
2022/06/09 07:56:15;;;;;;;1.60;1.50;;;;;;;14.46;100.00;96005.13;5030971;28;105183;-60
2022/06/09 07:58:42;;;;;;;2.40;1.40;;;;;;;14.46;100.00;96022.00;5030074;28;105751;-61
2022/06/09 08:01:10;;;;;;;3.27;1.70;;;;;;;14.39;100.00;96023.41;5032451;28;101711;-60
2022/06/09 08:03:40;;;;;;;1.67;1.57;;;;;;;14.28;100.00;96022.69;5030468;28;105169;-60
2022/06/09 08:06:32;;;;;;;2.13;1.40;;;;;;;14.27;100.00;96031.00;5031429;27;102519;-60
2022/06/09 08:09:01;;;;;;;1.60;1.50;;;;;;;14.37;100.00;96029.03;5034270;28;102081;-60
2022/06/09 08:11:32;;;;;;;1.50;1.40;;;;;;;14.31;100.00;96030.16;5029973;28;105615;-60
2022/06/09 08:14:01;;;;;;;1.90;1.60;;;;;;;14.30;100.00;96035.78;5031980;28;101769;-60
2022/06/09 08:16:29;;;;;;;1.67;1.30;;;;;;;14.34;100.00;96047.53;5030669;28;105732;-60
2022/06/09 08:18:57;;;;;;;2.17;1.70;;;;;;;14.32;100.00;96042.47;5031486;27;103181;-60
2022/06/09 08:21:24;;;;;;;1.87;1.73;;;;;;;14.23;100.00;96046.81;5032137;27;101680;-60
2022/06/09 08:23:52;;;;;;;1.60;1.43;;;;;;;14.20;100.00;96046.56;5030706;28;105585;-60
2022/06/09 08:26:27;;;;;;;1.40;1.30;;;;;;;14.20;100.00;96054.59;5031406;27;103126;-60
2022/06/09 08:28:55;;;;;;;1.30;1.20;;;;;;;14.26;100.00;96051.63;5031643;28;101872;-60
2022/06/09 08:31:22;;;;;;;2.03;1.50;;;;;;;14.35;100.00;96054.47;5034669;28;102333;-60
2022/06/09 08:33:49;;;;;;;1.87;1.50;;;;;;;14.32;100.00;96055.84;5031809;28;101871;-60
2022/06/09 08:36:36;;;;;;;3.00;2.07;;;;;;;14.47;100.00;96058.38;5030391;28;105554;-61
2022/06/09 08:39:04;;;;;;;1.80;1.70;;;;;;;14.21;100.00;96074.91;5028689;27;105577;-60
2022/06/09 08:41:54;;;;;;;1.80;1.70;;;;;;;13.98;100.00;96087.13;5030269;28;101886;-60
2022/06/09 08:44:34;;;;;;;1.97;1.87;;;;;;;13.95;100.00;96097.56;5031510;28;102496;-60
2022/06/09 08:47:09;;;;;;;1.43;1.33;;;;;;;13.78;100.00;96097.13;5029656;28;105434;-60
2022/06/09 08:49:53;;;;;;;3.43;1.30;;;;;;;13.72;100.00;96098.22;5031770;28;101835;-60
2022/06/09 08:52:35;;;;;;;1.10;1.00;;;;;;;13.51;100.00;96094.88;5031722;28;102566;-60
2022/06/09 08:55:21;;;;;;;0.77;0.73;;;;;;;13.47;100.00;96101.06;5034455;28;103186;-60
2022/06/09 08:57:52;;;;;;;0.77;0.77;;;;;;;13.51;100.00;96100.22;5031785;27;102747;-60
2022/06/09 09:00:22;;;;;;;3.17;0.93;;;;;;;13.52;100.00;96099.16;5030748;27;102802;-60
2022/06/09 09:02:54;;;;;;;2.70;1.10;;;;;;;13.68;100.00;96097.22;5031459;28;101661;-60
2022/06/09 09:05:58;;;;;;;3.13;0.90;;;;;;;13.79;100.00;96098.75;5031394;28;102454;-61
2022/06/09 09:08:26;;;;;;;1.37;0.80;;;;;;;13.65;100.00;96103.91;5029159;28;105313;-60
2022/06/09 09:11:06;;;;;;;1.90;0.87;;;;;;;13.57;100.00;96109.03;5031218;28;101935;-60
2022/06/09 09:13:40;;;;;;;1.33;0.90;;;;;;;13.61;100.00;96108.19;5029845;28;106130;-61
2022/06/09 09:16:32;;;;;;;1.27;0.60;;;;;;;13.39;100.00;96104.28;5030904;28;102617;-61
2022/06/09 09:19:22;;;;;;;0.87;0.60;;;;;;;13.27;100.00;96119.84;5033224;28;102185;-61
2022/06/09 09:21:58;;;;;;;1.10;0.77;;;;;;;13.29;100.00;96117.69;5030563;27;102920;-61
2022/06/09 09:24:37;;;;;;;1.03;0.77;;;;;;;13.31;100.00;96118.22;5029700;28;101853;-61
2022/06/09 09:27:17;;;;;;;0.83;0.70;;;;;;;13.31;100.00;96123.56;5031157;27;102321;-61
2022/06/09 09:29:49;;;;;;;3.70;0.83;;;;;;;13.29;100.00;96139.84;5030677;28;102816;-61
2022/06/09 09:32:22;;;;;;;2.23;0.67;;;;;;;13.27;100.00;96135.84;5031036;27;101752;-61
2022/06/09 09:34:53;;;;;;;0.73;0.70;;;;;;;13.28;100.00;96138.25;5029502;28;105307;-61
2022/06/09 09:37:27;;;;;;;0.87;0.80;;;;;;;13.31;100.00;96139.59;5028896;28;105675;-60
2022/06/09 09:39:59;;;;;;;1.33;1.10;;;;;;;13.28;100.00;96153.47;5030867;28;101888;-61
2022/06/09 09:42:28;;;;;;;1.43;1.30;;;;;;;13.12;100.00;96158.06;5033973;28;102566;-60
2022/06/09 09:45:05;;;;;;;3.10;1.50;;;;;;;13.21;100.00;96166.31;5030761;27;101817;-61
2022/06/09 09:47:41;;;;;;;2.53;1.37;;;;;;;13.22;100.00;96165.25;5029370;28;103222;-61
2022/06/09 09:50:24;;;;;;;2.33;1.77;;;;;;;13.25;100.00;96170.06;5028285;28;105474;-61
2022/06/09 09:53:01;;;;;;;2.00;1.43;;;;;;;13.28;100.00;96177.50;5030626;28;101786;-61
2022/06/09 09:55:36;;;;;;;1.40;1.30;;;;;;;13.35;100.00;96178.03;5030783;28;102600;-60
2022/06/09 09:58:21;;;;;;;2.03;1.20;;;;;;;13.24;100.00;96187.16;5029851;28;102610;-60
2022/06/09 10:00:53;;;;;;;3.57;1.50;;;;;;;13.42;100.00;96183.88;5029269;28;102330;-62
2022/06/09 10:09:22;;;;;;;3.73;1.63;;;;;;;13.46;100.00;96195.63;4968241;28;103510;-63
2022/06/09 10:11:58;;;;;;;1.50;1.37;;;;;;;13.33;100.00;96206.88;4951211;28;106148;-63
2022/06/09 10:14:42;;;;;;;2.23;1.63;;;;;;;13.41;100.00;96195.66;4999825;27;101970;-63
2022/06/09 10:17:26;;;;;;;3.77;2.17;;;;;;;13.49;100.00;96200.41;5030389;27;102347;-63
2022/06/09 10:20:01;;;;;;;4.37;2.73;;;;;;;13.72;100.00;96211.28;5028379;28;105830;-63
2022/06/09 10:22:29;;;;;;;4.80;3.10;;;;;;;13.70;100.00;96213.44;5030452;27;101685;-63
2022/06/09 10:25:05;;;;;;;3.67;2.90;;;;;;;13.79;100.00;96216.34;5030345;28;102444;-63
2022/06/09 10:27:38;;;;;;;3.23;2.57;;;;;;;13.90;100.00;96212.53;5031630;28;105520;-63
2022/06/09 10:30:12;;;;;;;5.17;3.70;;;;;;;14.05;100.00;96215.13;5030514;28;102300;-63
2022/06/09 10:32:48;;;;;;;5.00;3.27;;;;;;;14.14;100.00;96218.81;5029833;28;102597;-63
2022/06/09 10:35:28;;;;;;;2.47;2.10;;;;;;;14.18;100.00;96209.16;5028739;28;101904;-63
2022/06/09 10:38:01;;;;;;;2.70;2.00;;;;;;;14.30;100.00;96212.34;5030100;28;102367;-64
2022/06/09 10:40:35;;;;;;;3.93;1.77;;;;;;;14.20;100.00;96218.56;5029762;28;102647;-63
2022/06/09 10:43:07;;;;;;;2.13;1.60;;;;;;;14.27;100.00;96218.22;5030341;27;101711;-63
2022/06/09 10:45:42;;;;;;;1.80;1.70;;;;;;;14.47;100.00;96223.44;5028616;28;106540;-63
2022/06/09 10:57:24;;;;;;;1.70;1.60;;;;;;;14.51;100.00;96227.97;5028520;28;101900;-63
2022/06/09 10:59:55;;;;;;;1.60;1.43;;;;;;;14.47;100.00;96223.44;5029530;28;102410;-63
2022/06/09 11:02:25;;;;;;;1.73;1.60;;;;;;;14.53;100.00;96220.47;5028360;27;105764;-63
2022/06/09 11:04:55;;;;;;;1.60;1.50;;;;;;;14.80;100.00;96230.69;5033146;27;101897;-63
2022/06/09 11:07:35;;;;;;;2.27;1.73;;;;;;;14.77;100.00;96225.91;5033174;28;102397;-63
2022/06/09 11:10:17;;;;;;;3.17;1.43;;;;;;;14.87;100.00;96228.50;5031235;28;104306;-63
2022/06/09 11:12:58;;;;;;;2.93;1.40;;;;;;;14.74;100.00;96229.13;5031810;28;101841;-63
2022/06/09 11:15:48;;;;;;;1.43;1.20;;;;;;;14.67;100.00;96224.09;5036032;28;102939;-63
2022/06/09 11:18:36;;;;;;;2.10;1.30;;;;;;;14.86;100.00;96227.69;5032932;27;102056;-63
2022/06/09 11:21:15;;;;;;;2.50;1.30;;;;;;;14.78;100.00;96227.50;5031484;28;105425;-63
2022/06/09 11:24:06;;;;;;;2.27;1.23;;;;;;;14.67;100.00;96231.34;5032384;27;102527;-63
2022/06/09 11:26:41;;;;;;;2.67;1.50;;;;;;;14.52;100.00;96232.25;5033008;28;101843;-63
2022/06/09 11:29:34;;;;;;;2.43;1.37;;;;;;;14.18;100.00;96246.63;5031485;28;105771;-63
2022/06/09 11:32:11;;;;;;;1.50;1.00;;;;;;;13.93;100.00;96249.41;5030806;28;105820;-63
2022/06/09 11:35:04;;;;;;;1.40;0.90;;;;;;;13.67;100.00;96246.03;5031455;28;101997;-63
2022/06/09 11:37:46;;;;;;;2.50;1.40;;;;;;;13.80;100.00;96255.34;5031310;28;104929;-63
2022/06/09 11:40:32;;;;;;;2.10;1.70;;;;;;;13.90;100.00;96256.09;5035588;28;102692;-63
2022/06/09 11:43:19;;;;;;;1.67;1.13;;;;;;;13.87;100.00;96255.84;5032831;28;102897;-63
2022/06/09 11:45:51;;;;;;;1.03;0.97;;;;;;;13.93;100.00;96250.22;5032127;28;102843;-63
2022/06/09 11:48:48;;;;;;;1.50;1.00;;;;;;;14.17;100.00;96248.47;5032689;27;101688;-63
2022/06/09 11:51:18;;;;;;;1.47;0.80;;;;;;;14.15;100.00;96250.63;5032609;28;102622;-63
2022/06/09 11:53:51;;;;;;;1.07;0.80;;;;;;;14.25;100.00;96258.66;5030519;28;105384;-63
2022/06/09 11:59:22;;;;;;;0.87;0.87;;;;;;;14.30;100.00;96258.63;5030401;28;102321;-63
2022/06/09 12:02:20;;;;;;;2.33;0.90;;;;;;;14.19;100.00;96250.88;5030593;28;105832;-63
2022/06/09 12:05:32;;;;;;;1.17;0.70;;;;;;;14.36;100.00;96262.03;5020501;28;102198;-63
2022/06/09 12:08:18;;;;;;;2.10;0.80;;;;;;;14.41;100.00;96251.31;5029999;28;106601;-63
2022/06/09 12:11:02;;;;;;;0.60;0.60;;;;;;;14.68;100.00;96255.16;5032405;28;101749;-63
2022/06/09 12:13:38;;;;;;;1.10;0.93;;;;;;;14.57;100.00;96258.16;5032114;27;102544;-63
2022/06/09 12:16:23;;;;;;;1.10;0.70;;;;;;;14.51;100.00;96246.69;5030171;28;105474;-63